createdAt,value
2022-11-13T00:02:29.310Z,49.92
2022-11-13T00:04:54.262Z,57.49
2022-11-13T00:07:26.196Z,47.01
2022-11-13T00:09:50.980Z,46.36
2022-11-13T00:12:15.992Z,46.95
2022-11-13T00:14:43.042Z,45.82
2022-11-13T00:17:09.410Z,47.31
2022-11-13T00:19:34.493Z,48.33
2022-11-13T00:22:00.485Z,45.67
2022-11-13T00:24:24.630Z,46.01
2022-11-13T00:26:53.670Z,48.31
2022-11-13T00:29:18.058Z,46.94
2022-11-13T00:31:45.037Z,47.10
2022-11-13T00:34:33.185Z,48.77
2022-11-13T00:36:54.015Z,49.61
2022-11-13T00:39:19.200Z,49.24
2022-11-13T00:41:43.831Z,46.00
2022-11-13T00:44:08.913Z,46.99
2022-11-13T00:46:40.150Z,48.62
2022-11-13T00:49:07.637Z,47.95
2022-11-13T00:51:32.179Z,47.97
2022-11-13T00:53:57.494Z,50.03
2022-11-13T00:56:21.918Z,50.00
2022-11-13T00:58:47.211Z,49.57
2022-11-13T01:01:22.490Z,48.58
2022-11-13T01:03:47.276Z,46.53
2022-11-13T01:06:23.797Z,46.91
2022-11-13T01:08:54.566Z,44.81
2022-11-13T01:11:23.284Z,47.91
2022-11-13T01:13:51.270Z,47.38
2022-11-13T01:16:23.613Z,47.92
2022-11-13T01:18:50.613Z,49.48
2022-11-13T01:21:22.305Z,50.41
2022-11-13T01:23:48.148Z,47.46
2022-11-13T01:26:17.721Z,45.83
2022-11-13T01:28:44.004Z,47.29
2022-11-13T01:31:10.604Z,48.86
2022-11-13T01:33:37.365Z,47.11
2022-11-13T01:36:04.683Z,51.24
2022-11-13T01:38:36.260Z,47.56
2022-11-13T01:41:01.804Z,51.76
2022-11-13T01:43:32.199Z,47.56
2022-11-13T01:46:17.061Z,48.11
2022-11-13T01:48:53.680Z,49.62
2022-11-13T01:51:38.548Z,49.77
2022-11-13T01:54:12.592Z,54.87
2022-11-13T01:56:39.202Z,51.41
2022-11-13T01:59:16.568Z,49.80
2022-11-13T02:01:42.293Z,51.49
2022-11-13T02:04:13.818Z,57.23
2022-11-13T02:06:47.244Z,52.22
2022-11-13T02:09:18.926Z,58.01
2022-11-13T02:11:51.101Z,56.42
2022-11-13T02:14:18.855Z,52.01
2022-11-13T02:16:49.963Z,55.12
2022-11-13T02:19:34.052Z,50.51
2022-11-13T02:22:19.733Z,50.52
2022-11-13T02:24:54.586Z,53.17
2022-11-13T02:27:32.547Z,50.46
2022-11-13T02:29:57.940Z,49.64
2022-11-13T02:32:22.443Z,54.26
2022-11-13T02:34:47.165Z,50.24
2022-11-13T02:37:23.120Z,44.92
2022-11-13T02:39:53.662Z,45.10
2022-11-13T02:42:20.317Z,40.96
2022-11-13T02:44:47.937Z,42.36
2022-11-13T02:47:12.275Z,39.23
2022-11-13T02:49:36.748Z,40.69
2022-11-13T02:52:08.222Z,42.51
2022-11-13T02:54:37.228Z,45.36
2022-11-13T02:57:08.845Z,45.75
2022-11-13T02:59:33.121Z,44.48
2022-11-13T03:01:57.682Z,46.97
2022-11-13T03:04:23.034Z,48.69
2022-11-13T03:06:47.573Z,50.52
2022-11-13T03:09:11.966Z,50.01
2022-11-13T03:11:40.270Z,48.35
2022-11-13T03:14:15.313Z,43.14
2022-11-13T03:16:40.506Z,43.41
2022-11-13T03:19:08.188Z,46.31
2022-11-13T03:21:33.902Z,45.18
2022-11-13T03:24:21.206Z,48.01
2022-11-13T03:26:51.430Z,49.32
2022-11-13T03:29:23.864Z,49.91
2022-11-13T03:32:24.693Z,49.51
2022-11-13T03:34:50.096Z,49.33
2022-11-13T03:37:22.112Z,47.63
2022-11-13T03:39:56.504Z,44.97
2022-11-13T03:42:24.714Z,44.10
2022-11-13T03:44:58.094Z,46.38
2022-11-13T03:47:37.345Z,44.89
2022-11-13T03:50:01.769Z,46.26
2022-11-13T03:52:28.062Z,46.05
2022-11-13T03:54:53.109Z,46.73
2022-11-13T03:57:17.863Z,45.34
2022-11-13T04:05:51.021Z,45.40
2022-11-13T04:08:16.153Z,45.27
2022-11-13T04:10:40.460Z,46.23
2022-11-13T04:13:04.994Z,45.59
2022-11-13T04:15:30.377Z,46.66
2022-11-13T04:17:54.624Z,45.36
2022-11-13T04:20:20.869Z,48.36
2022-11-13T04:22:48.780Z,53.66
2022-11-13T04:25:13.217Z,48.74
2022-11-13T04:27:39.049Z,47.11
2022-11-13T04:30:04.718Z,45.50
2022-11-13T04:32:29.041Z,44.98
2022-11-13T04:34:53.650Z,46.34
2022-11-13T04:37:19.289Z,46.54
2022-11-13T04:39:45.980Z,47.51
2022-11-13T04:42:24.422Z,47.87
2022-11-13T04:44:49.527Z,45.95
2022-11-13T04:47:16.134Z,47.24
2022-11-13T04:49:40.619Z,46.03
2022-11-13T04:52:08.659Z,47.02
2022-11-13T04:54:32.848Z,51.19
2022-11-13T04:56:59.978Z,49.28
2022-11-13T04:59:25.575Z,47.84
2022-11-13T05:11:30.039Z,48.65
2022-11-13T05:17:32.137Z,50.05
2022-11-13T05:20:02.031Z,50.97
2022-11-13T05:22:27.096Z,49.03
2022-11-13T05:24:51.386Z,49.51
2022-11-13T05:27:17.765Z,50.00
2022-11-13T05:29:42.156Z,49.38
2022-11-13T05:32:09.229Z,50.90
2022-11-13T05:34:37.101Z,52.96
2022-11-13T05:37:01.162Z,58.43
2022-11-13T05:39:25.714Z,52.78
2022-11-13T05:41:51.089Z,53.77
2022-11-13T05:44:15.587Z,56.30
2022-11-13T05:46:39.969Z,50.84
2022-11-13T05:49:06.346Z,48.08
2022-11-13T05:51:36.970Z,47.99
2022-11-13T05:54:02.861Z,48.11
2022-11-13T05:56:31.241Z,44.58
2022-11-13T05:58:57.694Z,43.92
2022-11-13T06:01:26.290Z,42.29
2022-11-13T06:06:39.278Z,44.32
2022-11-13T06:09:08.652Z,39.10
2022-11-13T06:11:34.413Z,40.28
2022-11-13T06:14:02.769Z,40.80
2022-11-13T06:16:33.515Z,42.40
2022-11-13T06:19:00.846Z,41.10
2022-11-13T06:21:30.754Z,42.96
2022-11-13T06:23:59.889Z,40.85
2022-11-13T06:26:27.334Z,41.57
2022-11-13T06:28:51.965Z,42.93
2022-11-13T06:31:23.137Z,47.04
2022-11-13T06:33:48.398Z,48.97
2022-11-13T06:36:16.910Z,46.78
2022-11-13T06:38:44.689Z,45.51
2022-11-13T06:41:14.663Z,46.29
2022-11-13T06:43:39.108Z,49.11
2022-11-13T06:46:08.432Z,46.17
2022-11-13T06:48:32.987Z,46.82
2022-11-13T06:50:57.622Z,49.21
2022-11-13T06:53:22.880Z,50.00
2022-11-13T06:55:49.227Z,47.30
2022-11-13T06:58:16.834Z,47.36
2022-11-13T07:00:43.545Z,48.40
2022-11-13T07:03:08.048Z,46.30
2022-11-13T07:05:32.260Z,46.33
2022-11-13T07:07:59.935Z,47.14
2022-11-13T07:10:24.505Z,48.64
2022-11-13T07:12:53.560Z,50.27
2022-11-13T07:15:22.392Z,50.33
2022-11-13T07:17:46.562Z,49.58
2022-11-13T07:20:12.899Z,44.85
2022-11-13T07:22:38.314Z,42.09
2022-11-13T07:25:02.746Z,41.80
2022-11-13T07:27:26.971Z,40.63
2022-11-13T07:29:52.276Z,46.59
2022-11-13T07:32:19.341Z,53.39
2022-11-13T07:34:45.898Z,39.35
2022-11-13T07:37:11.444Z,39.73
2022-11-13T07:39:36.201Z,41.54
2022-11-13T07:42:00.451Z,37.93
2022-11-13T07:44:52.998Z,39.28
2022-11-13T07:47:09.851Z,37.34
2022-11-13T07:49:37.410Z,38.39
2022-11-13T07:52:01.943Z,37.43
2022-11-13T07:54:26.582Z,38.07
2022-11-13T07:56:51.548Z,38.96
2022-11-13T07:59:16.332Z,41.12
2022-11-13T08:01:41.053Z,39.78
2022-11-13T08:04:06.263Z,40.39
2022-11-13T08:06:33.095Z,42.02
2022-11-13T08:08:57.783Z,41.89
2022-11-13T08:11:23.079Z,40.94
2022-11-13T08:13:47.250Z,46.94
2022-11-13T08:16:11.947Z,42.24
2022-11-13T08:18:37.651Z,38.39
2022-11-13T08:21:09.186Z,40.45
2022-11-13T08:23:38.930Z,43.01
2022-11-13T08:26:08.476Z,42.34
2022-11-13T08:28:33.083Z,42.46
2022-11-13T08:30:57.702Z,45.67
2022-11-13T08:33:23.078Z,42.14
2022-11-13T08:35:56.818Z,42.74
2022-11-13T08:38:21.117Z,44.90
2022-11-13T08:40:48.990Z,45.10
2022-11-13T08:43:13.355Z,46.13
2022-11-13T08:45:37.611Z,48.58
2022-11-13T08:48:04.155Z,48.00
2022-11-13T08:50:28.725Z,53.79
2022-11-13T08:52:57.670Z,48.37
2022-11-13T08:55:22.721Z,51.27
2022-11-13T08:57:50.674Z,49.60
2022-11-13T09:00:16.558Z,47.75
2022-11-13T09:02:45.465Z,49.67
2022-11-13T09:05:11.391Z,56.63
2022-11-13T09:07:35.860Z,60.54
2022-11-13T09:10:01.029Z,52.53
2022-11-13T09:12:28.451Z,50.95
2022-11-13T09:14:55.662Z,51.60
2022-11-13T09:17:21.570Z,48.19
2022-11-13T09:19:45.753Z,47.54
2022-11-13T09:22:10.228Z,45.67
2022-11-13T09:24:35.532Z,45.35
2022-11-13T09:27:00.027Z,46.39
2022-11-13T09:29:26.199Z,44.12
2022-11-13T09:32:06.281Z,42.73
2022-11-13T09:34:37.526Z,41.20
2022-11-13T09:37:10.050Z,42.57
2022-11-13T09:39:35.182Z,41.37
2022-11-13T09:42:17.031Z,45.26
2022-11-13T09:44:51.906Z,47.79
2022-11-13T09:47:27.134Z,46.09
2022-11-13T09:50:03.622Z,50.15
2022-11-13T09:52:48.909Z,47.69
2022-11-13T09:55:29.389Z,47.59
2022-11-13T09:58:08.993Z,45.07
2022-11-13T10:00:39.560Z,45.21
2022-11-13T10:06:36.800Z,52.95
2022-11-13T10:09:20.203Z,51.02
2022-11-13T10:11:57.493Z,53.29
2022-11-13T10:14:32.820Z,48.86
2022-11-13T10:17:07.153Z,47.81
2022-11-13T10:19:45.582Z,46.54
2022-11-13T10:22:33.845Z,51.77
2022-11-13T10:25:17.443Z,51.35
2022-11-13T10:27:44.295Z,54.89
2022-11-13T10:30:22.889Z,52.00
2022-11-13T10:32:50.237Z,51.08
2022-11-13T10:35:49.719Z,50.86
2022-11-13T10:38:35.255Z,48.69
2022-11-13T10:41:20.025Z,48.56
2022-11-13T10:44:05.350Z,49.40
2022-11-13T10:46:34.782Z,52.71
2022-11-13T10:49:19.682Z,53.70
2022-11-13T10:51:47.051Z,51.48
2022-11-13T10:54:28.355Z,53.61
2022-11-13T10:57:02.256Z,58.29
2022-11-13T10:59:28.376Z,74.99
2022-11-13T11:01:52.999Z,61.20
2022-11-13T11:04:27.692Z,55.04
2022-11-13T11:07:19.509Z,49.41
2022-11-13T11:09:46.943Z,47.88
2022-11-13T11:12:19.294Z,48.82
2022-11-13T11:15:07.643Z,50.48
2022-11-13T11:17:46.804Z,55.05
2022-11-13T11:20:27.025Z,50.07
2022-11-13T11:23:07.843Z,53.08
2022-11-13T11:25:43.775Z,50.58
2022-11-13T11:28:25.760Z,47.78
2022-11-13T11:31:01.159Z,48.01
2022-11-13T11:33:38.549Z,47.62
2022-11-13T11:36:20.460Z,50.65
2022-11-13T11:39:02.496Z,48.66
2022-11-13T11:41:39.231Z,49.16
2022-11-13T11:44:19.889Z,47.66
2022-11-13T11:46:46.912Z,49.15
2022-11-13T11:49:16.256Z,50.84
2022-11-13T11:52:01.458Z,50.37
2022-11-13T11:54:44.426Z,53.49
2022-11-13T11:57:39.741Z,56.18
2022-11-13T12:00:16.328Z,60.01
2022-11-13T12:03:45.676Z,60.40
2022-11-13T12:06:27.258Z,58.29
2022-11-13T12:09:06.071Z,53.48
2022-11-13T12:11:38.352Z,57.45
2022-11-13T12:14:23.481Z,63.97
2022-11-13T12:17:28.019Z,53.27
2022-11-13T12:20:21.801Z,52.35
2022-11-13T12:23:05.433Z,56.81
2022-11-13T12:25:44.660Z,53.34
2022-11-13T12:28:26.413Z,53.72
2022-11-13T12:31:08.372Z,53.07
2022-11-13T12:33:51.854Z,52.66
2022-11-13T12:36:20.853Z,54.16
2022-11-13T12:38:59.979Z,56.04
2022-11-13T12:41:36.165Z,54.40
2022-11-13T12:44:26.117Z,52.72
2022-11-13T12:46:51.764Z,57.74
2022-11-13T12:49:34.956Z,57.32
2022-11-13T12:52:02.645Z,58.11
2022-11-13T12:54:34.009Z,58.50
2022-11-13T12:57:28.610Z,59.48
2022-11-13T13:00:01.128Z,62.18
2022-11-13T13:02:42.982Z,61.37
2022-11-13T13:05:28.420Z,60.36
2022-11-13T13:08:39.539Z,60.20
2022-11-13T13:11:20.700Z,62.74
2022-11-13T13:14:01.301Z,67.85
2022-11-13T13:16:32.923Z,64.43
2022-11-13T13:19:09.704Z,67.47
2022-11-13T13:21:45.668Z,65.33
2022-11-13T13:24:29.580Z,66.24
2022-11-13T13:26:54.598Z,61.76
2022-11-13T13:29:26.843Z,63.16
2022-11-13T13:32:11.608Z,61.92
2022-11-13T13:34:56.948Z,63.38
2022-11-13T13:37:40.147Z,65.76
2022-11-13T13:40:28.452Z,61.98
2022-11-13T13:43:18.951Z,63.20
2022-11-13T13:46:04.102Z,62.25
2022-11-13T13:48:34.624Z,64.76
2022-11-13T13:51:03.691Z,67.05
2022-11-13T13:53:34.247Z,67.39
2022-11-13T13:56:01.939Z,66.58
2022-11-13T13:58:40.839Z,68.30
2022-11-13T14:01:24.548Z,66.70
2022-11-13T14:03:51.277Z,66.41
2022-11-13T14:06:25.131Z,65.77
2022-11-13T14:08:50.390Z,66.19
2022-11-13T14:11:27.206Z,66.36
2022-11-13T14:13:52.536Z,70.36
2022-11-13T14:16:17.120Z,69.08
2022-11-13T14:18:41.632Z,64.40
2022-11-13T14:21:21.318Z,64.32
2022-11-13T14:23:52.300Z,66.80
2022-11-13T14:26:18.704Z,69.45
2022-11-13T14:28:59.418Z,67.15
2022-11-13T14:31:33.442Z,66.89
2022-11-13T14:33:58.808Z,68.16
2022-11-13T14:36:36.134Z,67.47
2022-11-13T14:39:03.093Z,67.68
2022-11-13T14:41:40.134Z,69.26
2022-11-13T14:44:06.244Z,73.42
2022-11-13T14:46:36.718Z,74.82
2022-11-13T14:49:01.239Z,76.18
2022-11-13T14:51:32.292Z,76.37
2022-11-13T14:54:07.790Z,69.83
2022-11-13T14:56:38.807Z,68.78
2022-11-13T14:59:18.344Z,70.60
2022-11-13T15:01:56.308Z,70.29
2022-11-13T15:04:22.539Z,71.37
2022-11-13T15:06:51.084Z,70.95
2022-11-13T15:09:20.358Z,70.77
2022-11-13T15:11:44.507Z,69.56
2022-11-13T15:14:15.580Z,72.68
2022-11-13T15:16:39.943Z,70.01
2022-11-13T15:19:12.304Z,70.68
2022-11-13T15:21:37.745Z,69.45
2022-11-13T15:24:04.814Z,68.15
2022-11-13T15:26:29.622Z,71.35
2022-11-13T15:28:54.899Z,73.21
2022-11-13T15:31:24.799Z,76.10
2022-11-13T15:33:49.549Z,77.20
2022-11-13T15:36:14.556Z,78.86
2022-11-13T15:38:39.080Z,81.35
2022-11-13T15:41:16.649Z,82.87
2022-11-13T15:43:46.192Z,91.11
2022-11-13T15:46:18.277Z,84.09
2022-11-13T15:48:44.388Z,85.42
2022-11-13T15:51:09.432Z,83.07
2022-11-13T15:53:33.891Z,84.13
2022-11-13T15:56:05.307Z,85.96
2022-11-13T15:58:34.528Z,81.31
2022-11-13T16:00:59.937Z,76.76
2022-11-13T16:03:24.186Z,70.59
2022-11-13T16:05:48.889Z,80.05
2022-11-13T16:08:18.437Z,83.57
2022-11-13T16:10:42.773Z,82.19
2022-11-13T16:13:07.230Z,82.44
2022-11-13T16:15:35.907Z,88.01
2022-11-13T16:18:02.458Z,85.91
2022-11-13T16:20:29.225Z,79.93
2022-11-13T16:22:55.220Z,80.89
2022-11-13T16:25:23.794Z,72.68
2022-11-13T16:27:50.240Z,73.57
2022-11-13T16:30:23.180Z,70.91
2022-11-13T16:32:51.410Z,70.16
2022-11-13T16:35:18.399Z,69.56
2022-11-13T16:37:43.373Z,70.24
2022-11-13T16:40:20.059Z,70.56
2022-11-13T16:42:45.267Z,71.36
2022-11-13T16:45:11.185Z,73.81
2022-11-13T16:47:35.633Z,80.23
2022-11-13T16:50:04.307Z,73.23
2022-11-13T16:52:29.883Z,73.27
2022-11-13T16:54:54.641Z,70.64
2022-11-13T16:57:20.133Z,73.68
2022-11-13T16:59:44.915Z,75.39
2022-11-13T17:02:18.150Z,75.74
2022-11-13T17:04:44.070Z,68.49
2022-11-13T17:07:15.701Z,70.74
2022-11-13T17:09:43.318Z,72.56
2022-11-13T17:12:09.174Z,72.13
2022-11-13T17:14:35.185Z,78.90
2022-11-13T17:16:59.387Z,72.46
2022-11-13T17:19:24.854Z,72.24
2022-11-13T17:21:48.998Z,75.87
2022-11-13T17:24:16.286Z,79.33
2022-11-13T17:26:41.792Z,75.35
2022-11-13T17:29:07.053Z,76.53
2022-11-13T17:31:31.827Z,77.79
2022-11-13T17:33:57.554Z,75.74
2022-11-13T17:36:25.755Z,72.24
2022-11-13T17:38:50.204Z,72.91
2022-11-13T17:41:19.867Z,71.14
2022-11-13T17:43:45.650Z,74.53
2022-11-13T17:46:16.204Z,69.89
2022-11-13T17:48:42.104Z,72.39
2022-11-13T17:51:11.078Z,68.40
2022-11-13T17:53:36.001Z,72.25
2022-11-13T17:56:03.566Z,77.17
2022-11-13T17:58:32.544Z,77.40
2022-11-13T18:01:09.450Z,70.85
2022-11-13T18:03:34.758Z,63.07
2022-11-13T18:06:01.183Z,61.45
2022-11-13T18:08:25.602Z,63.62
2022-11-13T18:10:52.903Z,67.41
2022-11-13T18:13:31.052Z,64.63
2022-11-13T18:15:56.970Z,64.64
2022-11-13T18:18:21.676Z,62.88
2022-11-13T18:20:46.254Z,61.37
2022-11-13T18:23:11.875Z,64.51
2022-11-13T18:25:39.909Z,66.81
2022-11-13T18:28:15.143Z,66.20
2022-11-13T18:30:44.935Z,66.01
2022-11-13T18:33:13.604Z,64.30
2022-11-13T18:35:37.978Z,60.81
2022-11-13T18:38:09.194Z,64.54
2022-11-13T18:40:33.534Z,61.73
2022-11-13T18:43:12.658Z,62.39
2022-11-13T18:45:38.056Z,65.50
2022-11-13T18:48:07.819Z,67.60
2022-11-13T18:50:32.414Z,65.96
2022-11-13T18:52:59.372Z,65.00
2022-11-13T18:55:30.684Z,65.14
2022-11-13T18:57:56.328Z,65.06
2022-11-13T19:00:22.686Z,64.78
2022-11-13T19:02:53.236Z,68.44
2022-11-13T19:05:20.240Z,71.97
2022-11-13T19:07:45.431Z,65.53
2022-11-13T19:10:23.423Z,67.24
2022-11-13T19:12:48.795Z,67.45
2022-11-13T19:15:13.917Z,79.40
2022-11-13T19:17:52.621Z,73.87
2022-11-13T19:20:24.084Z,65.30
2022-11-13T19:22:49.531Z,67.24
2022-11-13T19:25:26.096Z,71.26
2022-11-13T19:27:54.295Z,66.29
2022-11-13T19:30:19.461Z,61.69
2022-11-13T19:32:43.881Z,65.81
2022-11-13T19:35:10.293Z,75.97
2022-11-13T19:37:45.322Z,73.14
2022-11-13T19:40:29.493Z,76.11
2022-11-13T19:42:58.046Z,76.59
2022-11-13T19:45:22.994Z,79.66
2022-11-13T19:47:52.303Z,74.95
2022-11-13T19:50:22.702Z,68.31
2022-11-13T19:52:52.897Z,60.66
2022-11-13T19:55:17.381Z,64.57
2022-11-13T19:57:46.086Z,68.53
2022-11-13T20:00:23.005Z,63.64
2022-11-13T20:02:51.434Z,62.99
2022-11-13T20:05:17.937Z,59.11
2022-11-13T20:07:43.272Z,60.23
2022-11-13T20:10:11.844Z,56.47
2022-11-13T20:12:36.450Z,65.91
2022-11-13T20:15:01.618Z,62.90
2022-11-13T20:17:26.592Z,64.81
2022-11-13T20:19:51.548Z,63.78
2022-11-13T20:22:17.051Z,70.98
2022-11-13T20:24:41.616Z,71.13
2022-11-13T20:27:08.959Z,69.82
2022-11-13T20:29:34.671Z,65.97
2022-11-13T20:31:58.884Z,65.61
2022-11-13T20:34:23.268Z,67.35
2022-11-13T20:36:48.769Z,84.41
2022-11-13T20:39:13.424Z,64.13
2022-11-13T20:41:37.963Z,64.71
2022-11-13T20:44:05.767Z,64.92
2022-11-13T20:46:31.230Z,64.93
2022-11-13T20:48:55.827Z,72.78
2022-11-13T20:51:24.659Z,75.07
2022-11-13T20:53:51.115Z,70.11
2022-11-13T20:56:20.253Z,61.17
2022-11-13T20:58:46.003Z,63.61
2022-11-13T21:01:16.954Z,60.70
2022-11-13T21:03:43.581Z,60.01
2022-11-13T21:06:10.328Z,59.94
2022-11-13T21:08:34.904Z,58.24
2022-11-13T21:11:01.676Z,58.14
2022-11-13T21:13:27.562Z,78.65
2022-11-13T21:15:51.920Z,53.45
2022-11-13T21:18:20.808Z,53.69
2022-11-13T21:20:46.139Z,57.95
2022-11-13T21:23:10.632Z,54.67
2022-11-13T21:25:35.156Z,51.09
2022-11-13T21:28:00.660Z,48.16
2022-11-13T21:30:25.544Z,51.82
2022-11-13T21:32:50.376Z,52.18
2022-11-13T21:35:22.703Z,51.04
2022-11-13T21:37:47.164Z,47.13
2022-11-13T21:40:14.019Z,47.67
2022-11-13T21:42:39.269Z,47.48
2022-11-13T21:45:03.785Z,45.88
2022-11-13T21:47:28.716Z,45.83
2022-11-13T21:49:53.730Z,47.14
2022-11-13T21:52:21.012Z,50.33
2022-11-13T21:54:45.210Z,52.75
2022-11-13T21:57:10.311Z,49.53
2022-11-13T21:59:34.836Z,51.48
2022-11-13T22:01:59.311Z,48.59
2022-11-13T22:04:24.623Z,46.03
2022-11-13T22:06:53.538Z,49.98
2022-11-13T22:09:23.302Z,50.98
2022-11-13T22:11:49.972Z,49.24
2022-11-13T22:14:14.427Z,55.24
2022-11-13T22:16:43.634Z,52.63
2022-11-13T22:19:13.407Z,50.85
2022-11-13T22:21:39.055Z,53.40
2022-11-13T22:24:04.510Z,57.97
2022-11-13T22:26:33.366Z,56.25
2022-11-13T22:28:59.804Z,57.64
2022-11-13T22:31:29.610Z,48.05
2022-11-13T22:33:56.413Z,49.20
2022-11-13T22:36:26.020Z,49.46
2022-11-13T22:38:51.314Z,47.48
2022-11-13T22:41:22.887Z,46.70
2022-11-13T22:43:59.872Z,54.08
2022-11-13T22:46:34.829Z,49.07
2022-11-13T22:49:02.684Z,51.86
2022-11-13T22:51:31.866Z,43.38
2022-11-13T22:53:59.269Z,43.33
2022-11-13T22:56:26.183Z,41.60
2022-11-13T22:58:56.271Z,44.73
2022-11-13T23:01:23.530Z,44.46
2022-11-13T23:03:51.097Z,45.97
2022-11-13T23:06:20.711Z,50.80
2022-11-13T23:08:46.924Z,50.32
2022-11-13T23:11:17.296Z,49.36
2022-11-13T23:13:44.846Z,45.64
2022-11-13T23:16:12.706Z,45.09
2022-11-13T23:18:37.218Z,46.10
2022-11-13T23:21:02.824Z,45.09
2022-11-13T23:23:27.198Z,45.01
2022-11-13T23:25:51.894Z,47.66
2022-11-13T23:28:17.251Z,43.17
2022-11-13T23:30:41.932Z,46.57
2022-11-13T23:33:11.529Z,54.96
2022-11-13T23:35:36.626Z,48.42
2022-11-13T23:38:00.990Z,54.67
2022-11-13T23:40:26.231Z,53.26
2022-11-13T23:42:55.697Z,48.14
2022-11-13T23:45:20.646Z,51.91
2022-11-13T23:47:44.901Z,51.06
2022-11-13T23:50:14.508Z,52.33
2022-11-13T23:52:39.502Z,45.95
2022-11-13T23:55:03.963Z,48.04
2022-11-13T23:57:29.058Z,49.90
2022-11-13T23:59:53.167Z,48.72
